createdAt,value
2023-02-28T00:00:41.419Z,10.23
2023-02-28T00:03:10.524Z,11.35
2023-02-28T00:05:39.693Z,11.27
2023-02-28T00:08:10.507Z,11.15
2023-02-28T00:10:40.541Z,9.88
2023-02-28T00:13:09.677Z,15.80
2023-02-28T00:15:39.544Z,16.90
2023-02-28T00:18:08.544Z,14.00
2023-02-28T00:20:40.111Z,14.02
2023-02-28T00:23:10.748Z,10.30
2023-02-28T00:25:39.886Z,10.68
2023-02-28T00:28:08.907Z,13.10
2023-02-28T00:30:38.182Z,13.40
2023-02-28T00:33:07.808Z,15.45
2023-02-28T00:35:37.019Z,13.38
2023-02-28T00:38:06.677Z,13.10
2023-02-28T00:40:39.119Z,11.82
2023-02-28T00:43:08.204Z,11.77
2023-02-28T00:45:37.199Z,10.85
2023-02-28T00:48:07.235Z,16.17
2023-02-28T00:50:36.287Z,13.98
2023-02-28T00:53:05.273Z,10.05
2023-02-28T00:55:34.305Z,9.88
2023-02-28T00:58:08.628Z,14.13
2023-02-28T01:00:37.609Z,13.73
2023-02-28T01:03:06.617Z,11.48
2023-02-28T01:05:35.682Z,16.13
2023-02-28T01:08:04.954Z,13.95
2023-02-28T01:10:34.020Z,12.85
2023-02-28T01:13:03.118Z,12.23
2023-02-28T01:15:34.329Z,12.52
2023-02-28T01:18:03.387Z,11.88
2023-02-28T01:20:34.116Z,16.92
2023-02-28T01:23:04.229Z,14.40
2023-02-28T01:25:33.317Z,13.52
2023-02-28T01:28:02.342Z,14.88
2023-02-28T01:30:31.344Z,13.70
2023-02-28T01:33:02.249Z,11.52
2023-02-28T01:35:33.993Z,14.70
2023-02-28T01:38:21.023Z,12.98
2023-02-28T01:40:50.868Z,14.90
2023-02-28T01:43:25.232Z,15.65
2023-02-28T01:45:56.300Z,13.75
2023-02-28T01:48:30.532Z,14.38
2023-02-28T01:51:05.352Z,16.38
2023-02-28T01:53:39.355Z,13.23
2023-02-28T01:56:11.393Z,13.98
2023-02-28T01:58:40.665Z,15.38
2023-02-28T02:01:09.684Z,15.52
2023-02-28T02:03:40.402Z,10.95
2023-02-28T02:06:09.452Z,13.07
2023-02-28T02:08:40.382Z,15.75
2023-02-28T02:11:13.781Z,12.18
2023-02-28T02:14:22.509Z,15.45
2023-02-28T02:17:07.893Z,15.20
2023-02-28T02:20:46.781Z,14.65
2023-02-28T02:24:02.513Z,15.38
2023-02-28T02:27:12.065Z,15.70
2023-02-28T02:30:00.275Z,16.02
2023-02-28T02:33:20.695Z,14.18
2023-02-28T02:35:56.580Z,15.48
2023-02-28T02:38:35.853Z,11.93
2023-02-28T02:41:16.457Z,18.02
2023-02-28T02:43:52.212Z,13.15
2023-02-28T02:46:26.299Z,14.27
2023-02-28T02:48:58.913Z,12.70
2023-02-28T02:51:30.511Z,18.15
2023-02-28T02:54:04.344Z,15.23
2023-02-28T02:56:36.025Z,12.73
2023-02-28T02:59:10.999Z,14.27
2023-02-28T03:01:42.456Z,12.40
2023-02-28T03:04:16.175Z,13.02
2023-02-28T03:06:46.638Z,14.60
2023-02-28T03:09:15.846Z,13.55
2023-02-28T03:11:45.195Z,15.35
2023-02-28T03:14:35.760Z,14.68
2023-02-28T03:17:42.412Z,14.77
2023-02-28T03:20:24.089Z,15.23
2023-02-28T03:23:09.711Z,15.80
2023-02-28T03:25:49.622Z,20.40
2023-02-28T03:28:27.992Z,18.80
2023-02-28T03:31:03.551Z,18.67
2023-02-28T03:33:37.990Z,14.30
2023-02-28T03:36:13.426Z,16.33
2023-02-28T03:38:50.898Z,14.73
2023-02-28T03:41:24.500Z,15.98
2023-02-28T03:43:59.064Z,15.68
2023-02-28T03:46:33.370Z,17.02
2023-02-28T03:49:10.944Z,20.85
2023-02-28T03:51:42.957Z,18.60
2023-02-28T03:54:20.222Z,16.27
2023-02-28T03:56:56.301Z,15.90
2023-02-28T03:59:31.281Z,16.98
2023-02-28T04:02:00.720Z,15.45
2023-02-28T04:04:30.260Z,17.50
2023-02-28T04:07:05.424Z,17.33
2023-02-28T04:09:35.921Z,13.15
2023-02-28T04:12:05.309Z,17.05
2023-02-28T04:14:34.361Z,17.45
2023-02-28T04:17:03.333Z,16.83
2023-02-28T04:19:32.340Z,18.33
2023-02-28T04:22:01.410Z,14.85
2023-02-28T04:24:31.331Z,17.15
2023-02-28T04:27:01.727Z,16.77
2023-02-28T04:29:33.853Z,16.75
2023-02-28T04:32:04.208Z,19.42
2023-02-28T04:34:34.802Z,13.38
2023-02-28T04:37:13.177Z,15.32
2023-02-28T04:39:44.598Z,14.98
2023-02-28T04:42:15.601Z,16.25
2023-02-28T04:44:44.704Z,17.65
2023-02-28T04:47:13.682Z,18.15
2023-02-28T04:49:43.897Z,13.52
2023-02-28T04:52:14.283Z,17.73
2023-02-28T04:54:43.358Z,15.15
2023-02-28T04:57:12.355Z,14.13
2023-02-28T04:59:42.837Z,16.13
2023-02-28T05:02:11.886Z,16.27
2023-02-28T05:04:40.985Z,13.65
2023-02-28T05:07:10.756Z,18.98
2023-02-28T05:09:39.758Z,20.30
2023-02-28T05:12:10.725Z,19.38
2023-02-28T05:14:39.761Z,16.77
2023-02-28T05:17:11.381Z,16.10
2023-02-28T05:19:40.669Z,15.80
2023-02-28T05:22:16.454Z,13.82
2023-02-28T05:24:45.470Z,15.45
2023-02-28T05:27:14.574Z,20.85
2023-02-28T05:29:46.446Z,16.30
2023-02-28T05:32:17.703Z,23.42
2023-02-28T05:34:47.065Z,14.40
2023-02-28T05:37:17.332Z,17.85
2023-02-28T05:39:46.372Z,17.83
2023-02-28T05:42:17.769Z,20.98
2023-02-28T05:44:47.232Z,21.02
2023-02-28T05:47:17.944Z,17.25
2023-02-28T05:49:47.065Z,18.90
2023-02-28T05:52:16.885Z,16.50
2023-02-28T05:54:46.011Z,18.63
2023-02-28T05:57:23.989Z,16.13
2023-02-28T05:59:53.870Z,18.77
2023-02-28T06:02:24.237Z,20.23
2023-02-28T06:04:53.358Z,19.40
2023-02-28T06:07:23.509Z,13.10
2023-02-28T06:09:55.396Z,17.15
2023-02-28T06:12:24.579Z,17.85
2023-02-28T06:14:53.544Z,20.05
2023-02-28T06:17:26.357Z,20.83
2023-02-28T06:19:55.503Z,20.60
2023-02-28T06:22:24.506Z,17.55
2023-02-28T06:24:54.022Z,18.38
2023-02-28T06:27:23.142Z,16.98
2023-02-28T06:29:56.872Z,16.45
2023-02-28T06:32:27.514Z,19.65
2023-02-28T06:34:58.417Z,18.25
2023-02-28T06:37:28.168Z,18.20
2023-02-28T06:39:58.025Z,16.90
2023-02-28T06:42:29.871Z,19.10
2023-02-28T06:44:58.962Z,17.60
2023-02-28T06:47:29.593Z,17.17
2023-02-28T06:49:58.628Z,21.33
2023-02-28T06:52:27.607Z,19.60
2023-02-28T06:55:00.865Z,26.52
2023-02-28T06:57:31.997Z,27.50
2023-02-28T07:00:03.956Z,19.92
2023-02-28T07:02:34.330Z,20.63
2023-02-28T07:05:03.383Z,22.33
2023-02-28T07:07:33.330Z,21.50
2023-02-28T07:10:02.333Z,18.25
2023-02-28T07:12:31.392Z,20.20
2023-02-28T07:15:00.384Z,23.27
2023-02-28T07:17:29.365Z,20.27
2023-02-28T07:19:59.881Z,21.92
2023-02-28T07:22:29.615Z,19.90
2023-02-28T07:24:58.594Z,22.58
2023-02-28T07:27:27.635Z,24.42
2023-02-28T07:29:56.865Z,30.90
2023-02-28T07:32:25.989Z,30.20
2023-02-28T07:34:55.049Z,23.50
2023-02-28T07:37:25.408Z,20.90
2023-02-28T07:39:54.435Z,25.95
2023-02-28T07:42:26.121Z,21.63
2023-02-28T07:44:55.250Z,30.20
2023-02-28T07:47:25.493Z,21.48
2023-02-28T07:49:54.885Z,27.60
2023-02-28T07:52:25.552Z,25.60
2023-02-28T07:54:54.612Z,28.95
2023-02-28T07:57:23.584Z,27.88
2023-02-28T07:59:52.802Z,23.80
2023-02-28T08:02:21.838Z,22.65
2023-02-28T08:04:51.384Z,26.85
2023-02-28T08:07:20.845Z,22.58
2023-02-28T08:09:51.335Z,25.67
2023-02-28T08:12:20.330Z,27.65
2023-02-28T08:14:49.545Z,28.00
2023-02-28T08:17:18.922Z,21.83
2023-02-28T08:19:48.195Z,23.33
2023-02-28T08:22:17.322Z,24.02
2023-02-28T08:24:46.755Z,21.67
2023-02-28T08:27:17.268Z,21.15
2023-02-28T08:29:46.472Z,28.70
2023-02-28T08:32:28.920Z,23.02
2023-02-28T08:34:59.336Z,23.08
2023-02-28T08:37:28.380Z,26.65
2023-02-28T08:39:57.391Z,28.92
2023-02-28T08:42:27.941Z,29.45
2023-02-28T08:44:57.583Z,25.00
2023-02-28T08:47:26.551Z,27.77
2023-02-28T08:49:55.508Z,25.55
2023-02-28T08:52:24.636Z,24.38
2023-02-28T08:54:53.584Z,27.38
2023-02-28T08:57:22.578Z,25.17
2023-02-28T08:59:53.026Z,25.13
2023-02-28T09:02:22.010Z,23.58
2023-02-28T09:04:50.976Z,29.42
2023-02-28T09:07:20.030Z,26.52
2023-02-28T09:09:55.767Z,23.25
2023-02-28T09:12:25.735Z,25.27
2023-02-28T09:14:58.525Z,25.55
2023-02-28T09:17:30.622Z,27.75
2023-02-28T09:20:00.293Z,23.13
2023-02-28T09:22:29.272Z,24.13
2023-02-28T09:24:58.439Z,23.30
2023-02-28T09:27:27.521Z,26.88
2023-02-28T09:29:58.052Z,26.65
2023-02-28T09:32:27.264Z,24.75
2023-02-28T09:34:56.509Z,20.65
2023-02-28T09:37:27.549Z,24.55
2023-02-28T09:39:56.650Z,23.30
2023-02-28T09:42:33.390Z,26.48
2023-02-28T09:45:15.430Z,23.65
2023-02-28T09:47:48.724Z,24.48
2023-02-28T09:50:33.919Z,23.35
2023-02-28T09:53:12.477Z,27.45
2023-02-28T09:55:47.415Z,26.40
2023-02-28T09:58:22.873Z,30.75
2023-02-28T10:01:02.626Z,27.88
2023-02-28T10:03:37.827Z,28.85
2023-02-28T10:06:15.709Z,31.35
2023-02-28T10:08:54.356Z,137.23
2023-02-28T10:11:25.034Z,40.95
2023-02-28T10:14:02.540Z,28.98
2023-02-28T10:16:38.951Z,64.22
2023-02-28T10:19:15.812Z,30.08
2023-02-28T10:21:52.069Z,37.53
2023-02-28T10:24:32.713Z,27.65
2023-02-28T10:27:15.093Z,30.95
2023-02-28T10:29:47.427Z,32.25
2023-02-28T10:32:21.233Z,33.03
2023-02-28T10:34:54.637Z,29.58
2023-02-28T10:37:23.816Z,30.40
2023-02-28T10:39:52.942Z,37.80
2023-02-28T10:42:27.352Z,34.85
2023-02-28T10:45:14.302Z,26.90
2023-02-28T10:47:57.525Z,32.30
2023-02-28T10:50:44.222Z,33.72
2023-02-28T10:53:57.316Z,39.47
2023-02-28T10:56:27.421Z,37.42
2023-02-28T10:58:59.382Z,45.75
2023-02-28T11:01:44.471Z,47.25
2023-02-28T11:04:36.840Z,48.40
2023-02-28T11:07:09.076Z,39.65
2023-02-28T11:09:42.055Z,42.08
2023-02-28T11:12:24.086Z,42.45
2023-02-28T11:14:56.958Z,41.47
2023-02-28T11:17:29.116Z,45.20
2023-02-28T11:20:04.427Z,40.30
2023-02-28T11:22:38.977Z,47.85
2023-02-28T11:25:18.556Z,45.58
2023-02-28T11:27:52.849Z,46.83
2023-02-28T11:30:36.180Z,42.95
2023-02-28T11:33:28.352Z,42.58
2023-02-28T11:36:03.946Z,45.33
2023-02-28T11:38:37.840Z,43.42
2023-02-28T11:41:51.690Z,43.28
2023-02-28T11:44:35.769Z,51.72
2023-02-28T11:47:13.966Z,38.30
2023-02-28T11:49:54.773Z,44.40
2023-02-28T11:52:42.332Z,43.85
2023-02-28T11:55:21.307Z,41.05
2023-02-28T11:58:26.932Z,47.63
2023-02-28T12:01:15.825Z,44.92
2023-02-28T12:04:05.346Z,37.17
2023-02-28T12:06:42.506Z,42.92
2023-02-28T12:09:32.178Z,48.13
2023-02-28T12:12:11.575Z,52.13
2023-02-28T12:15:06.892Z,55.35
2023-02-28T12:17:53.423Z,54.47
2023-02-28T12:20:31.900Z,59.13
2023-02-28T12:23:24.041Z,66.55
2023-02-28T12:26:07.436Z,64.93
2023-02-28T12:28:40.136Z,70.30
2023-02-28T12:31:16.438Z,63.03
2023-02-28T12:33:50.242Z,65.55
2023-02-28T12:36:23.109Z,58.22
2023-02-28T12:39:00.398Z,59.53
2023-02-28T12:41:39.610Z,58.97
2023-02-28T12:44:18.647Z,55.22
2023-02-28T12:46:52.654Z,62.13
2023-02-28T12:49:28.441Z,58.65
2023-02-28T12:51:57.632Z,63.13
2023-02-28T12:54:33.916Z,55.40
2023-02-28T12:57:15.365Z,57.53
2023-02-28T12:59:50.854Z,57.83
2023-02-28T13:03:00.050Z,51.63
2023-02-28T13:05:56.929Z,51.38
2023-02-28T13:08:55.986Z,53.90
2023-02-28T13:11:33.391Z,49.97
2023-02-28T13:17:05.751Z,49.80
2023-02-28T13:19:37.867Z,44.33
2023-02-28T13:22:17.720Z,35.03
2023-02-28T13:24:52.448Z,33.60
2023-02-28T13:27:37.952Z,36.40
2023-02-28T13:31:05.060Z,41.42
2023-02-28T13:33:35.265Z,39.75
2023-02-28T13:36:27.881Z,41.13
2023-02-28T13:39:02.574Z,38.85
2023-02-28T13:41:49.342Z,34.47
2023-02-28T13:44:24.267Z,36.75
2023-02-28T13:47:29.881Z,35.15
2023-02-28T13:50:22.732Z,34.65
2023-02-28T13:53:15.397Z,33.83
2023-02-28T13:55:52.320Z,32.75
2023-02-28T13:58:40.499Z,34.80
2023-02-28T14:01:33.880Z,33.60
2023-02-28T14:04:38.935Z,30.65
2023-02-28T14:07:10.331Z,35.67
2023-02-28T14:09:43.127Z,32.33
2023-02-28T14:13:02.870Z,32.05
2023-02-28T14:18:33.020Z,23.05
2023-02-28T14:21:26.355Z,21.40
2023-02-28T14:24:26.322Z,18.67
2023-02-28T14:27:14.185Z,18.13
2023-02-28T14:30:43.237Z,14.05
2023-02-28T14:33:59.636Z,12.93
2023-02-28T14:36:37.373Z,10.95
2023-02-28T14:39:09.950Z,11.52
2023-02-28T14:41:41.517Z,12.38
2023-02-28T14:44:20.672Z,11.93
2023-02-28T14:46:54.310Z,15.02
2023-02-28T14:49:30.618Z,16.30
2023-02-28T14:52:16.984Z,18.75
2023-02-28T14:54:46.997Z,19.63
2023-02-28T14:57:25.928Z,20.67
2023-02-28T15:00:11.501Z,17.83
2023-02-28T15:02:42.487Z,27.70
2023-02-28T15:05:31.120Z,27.40
2023-02-28T15:08:13.443Z,25.48
2023-02-28T15:10:45.177Z,28.98
2023-02-28T15:13:17.446Z,26.35
2023-02-28T15:16:02.707Z,29.40
2023-02-28T15:18:45.412Z,27.73
2023-02-28T15:21:19.273Z,28.15
2023-02-28T15:23:54.688Z,28.85
2023-02-28T15:26:29.304Z,26.60
2023-02-28T15:29:03.664Z,28.10
2023-02-28T15:31:56.487Z,28.67
2023-02-28T15:34:42.270Z,24.83
2023-02-28T15:37:32.694Z,30.83
2023-02-28T15:40:17.541Z,27.10
2023-02-28T15:43:02.155Z,28.77
2023-02-28T15:45:46.682Z,32.22
2023-02-28T15:48:22.671Z,31.00
2023-02-28T15:50:55.015Z,29.55
2023-02-28T15:53:28.358Z,31.30
2023-02-28T15:56:04.204Z,32.28
2023-02-28T15:58:35.037Z,28.67
2023-02-28T16:01:18.405Z,31.60
2023-02-28T16:03:50.877Z,25.85
2023-02-28T16:06:40.312Z,30.80
2023-02-28T16:09:14.284Z,33.08
2023-02-28T16:11:50.336Z,30.55
2023-02-28T16:14:24.009Z,30.80
2023-02-28T16:16:55.720Z,28.67
2023-02-28T16:19:25.551Z,27.92
2023-02-28T16:21:54.636Z,29.63
2023-02-28T16:24:23.619Z,27.42
2023-02-28T16:26:57.545Z,30.80
2023-02-28T16:29:30.926Z,30.67
2023-02-28T16:32:00.947Z,28.65
2023-02-28T16:34:29.970Z,30.05
2023-02-28T16:36:59.585Z,30.75
2023-02-28T16:39:28.659Z,28.55
2023-02-28T16:42:00.004Z,32.72
2023-02-28T16:44:32.075Z,29.20
2023-02-28T16:47:02.741Z,28.65
2023-02-28T16:49:31.935Z,28.83
2023-02-28T16:52:00.983Z,27.33
2023-02-28T16:54:29.975Z,29.63
2023-02-28T16:57:01.282Z,28.00
2023-02-28T16:59:31.717Z,37.33
2023-02-28T17:02:01.138Z,53.20
2023-02-28T17:04:30.754Z,81.22
2023-02-28T17:07:00.128Z,102.25
2023-02-28T17:09:40.206Z,85.47
2023-02-28T17:12:13.133Z,72.18
2023-02-28T17:14:42.382Z,40.00
2023-02-28T17:17:17.840Z,63.17
2023-02-28T17:19:53.306Z,46.00
2023-02-28T17:22:22.622Z,38.33
2023-02-28T17:24:51.658Z,38.13
2023-02-28T17:27:22.083Z,34.08
2023-02-28T17:29:51.205Z,37.55
2023-02-28T17:32:20.349Z,32.10
2023-02-28T17:34:49.615Z,28.83
2023-02-28T17:37:18.694Z,30.45
2023-02-28T17:39:48.072Z,30.00
2023-02-28T17:42:17.253Z,26.45
2023-02-28T17:44:53.107Z,34.15
2023-02-28T17:47:22.226Z,30.40
2023-02-28T17:49:51.564Z,31.08
2023-02-28T17:52:22.271Z,29.35
2023-02-28T17:54:54.109Z,29.13
2023-02-28T17:57:23.505Z,30.05
2023-02-28T17:59:53.918Z,34.05
2023-02-28T18:02:23.103Z,31.42
2023-02-28T18:04:52.149Z,30.73
2023-02-28T18:07:25.212Z,28.15
2023-02-28T18:09:54.651Z,27.27
2023-02-28T18:12:23.726Z,24.27
2023-02-28T18:14:54.376Z,27.73
2023-02-28T18:17:23.437Z,28.20
2023-02-28T18:19:52.505Z,35.55
2023-02-28T18:22:21.581Z,30.65
2023-02-28T18:24:50.937Z,32.58
2023-02-28T18:27:20.055Z,36.13
2023-02-28T18:29:51.046Z,32.97
2023-02-28T18:32:21.574Z,31.13
2023-02-28T18:34:50.916Z,34.08
2023-02-28T18:37:20.858Z,29.10
2023-02-28T18:39:49.952Z,30.20
2023-02-28T18:42:18.996Z,33.50
2023-02-28T18:44:48.043Z,28.23
2023-02-28T18:47:17.863Z,27.85
2023-02-28T18:49:48.665Z,31.13
2023-02-28T18:52:21.408Z,29.52
2023-02-28T18:54:50.815Z,27.02
2023-02-28T18:57:19.822Z,32.75
2023-02-28T18:59:49.106Z,35.47
2023-02-28T19:02:18.344Z,33.85
2023-02-28T19:04:48.774Z,36.90
2023-02-28T19:07:17.859Z,40.35
2023-02-28T19:09:47.033Z,40.25
2023-02-28T19:12:17.581Z,41.42
2023-02-28T19:14:47.437Z,43.33
2023-02-28T19:17:16.689Z,44.28
2023-02-28T19:19:45.684Z,46.85
2023-02-28T19:22:16.249Z,45.80
2023-02-28T19:24:45.410Z,44.33
2023-02-28T19:27:14.630Z,40.72
2023-02-28T19:29:44.044Z,44.67
2023-02-28T19:32:13.258Z,48.72
2023-02-28T19:34:43.053Z,43.38
2023-02-28T19:37:13.872Z,48.00
2023-02-28T19:39:47.046Z,40.60
2023-02-28T19:42:19.223Z,37.97
2023-02-28T19:44:49.738Z,38.80
2023-02-28T19:47:27.445Z,46.67
2023-02-28T19:49:58.968Z,38.95
2023-02-28T19:52:28.792Z,44.42
2023-02-28T19:55:00.742Z,45.20
2023-02-28T19:57:30.070Z,57.97
2023-02-28T19:59:59.404Z,52.30
2023-02-28T20:02:31.566Z,58.92
2023-02-28T20:05:01.558Z,59.70
2023-02-28T20:07:32.070Z,51.92
2023-02-28T20:10:03.626Z,53.15
2023-02-28T20:12:32.730Z,54.13
2023-02-28T20:15:02.608Z,55.92
2023-02-28T20:17:31.883Z,54.30
2023-02-28T20:20:01.881Z,53.75
2023-02-28T20:22:31.246Z,51.17
2023-02-28T20:25:01.068Z,53.92
2023-02-28T20:27:33.891Z,46.60
2023-02-28T20:30:02.969Z,50.70
2023-02-28T20:32:33.263Z,45.55
2023-02-28T20:35:02.438Z,48.22
2023-02-28T20:37:31.698Z,52.03
2023-02-28T20:40:01.260Z,53.85
2023-02-28T20:42:31.918Z,53.22
2023-02-28T20:45:01.700Z,50.47
2023-02-28T20:47:33.712Z,57.47
2023-02-28T20:50:02.739Z,48.60
2023-02-28T20:52:32.544Z,55.10
2023-02-28T20:55:03.504Z,68.45
2023-02-28T20:57:34.084Z,63.72
2023-02-28T21:00:04.044Z,61.47
2023-02-28T21:02:35.849Z,55.90
2023-02-28T21:05:05.667Z,52.30
2023-02-28T21:07:35.523Z,47.00
2023-02-28T21:10:05.857Z,43.45
2023-02-28T21:12:36.906Z,49.92
2023-02-28T21:15:08.006Z,50.97
2023-02-28T21:17:37.782Z,46.90
2023-02-28T21:20:08.127Z,46.67
2023-02-28T21:22:37.250Z,48.13
2023-02-28T21:25:09.804Z,52.75
2023-02-28T21:27:40.789Z,49.28
2023-02-28T21:30:12.280Z,41.95
2023-02-28T21:32:41.376Z,46.00
2023-02-28T21:35:11.433Z,44.47
2023-02-28T21:37:40.558Z,43.67
2023-02-28T21:40:11.407Z,47.28
2023-02-28T21:42:42.089Z,47.17
2023-02-28T21:45:12.112Z,54.72
2023-02-28T21:47:41.284Z,52.15
2023-02-28T21:50:15.072Z,50.00
2023-02-28T21:52:45.104Z,58.15
2023-02-28T21:55:14.367Z,53.33
2023-02-28T21:57:44.938Z,61.53
2023-02-28T22:00:17.562Z,56.22
2023-02-28T22:02:46.637Z,49.78
2023-02-28T22:05:17.602Z,54.17
2023-02-28T22:07:46.705Z,56.17
2023-02-28T22:10:15.939Z,61.28
2023-02-28T22:12:46.473Z,62.47
2023-02-28T22:15:15.610Z,57.78
2023-02-28T22:17:45.263Z,64.25
2023-02-28T22:20:14.782Z,57.72
2023-02-28T22:22:44.176Z,55.45
2023-02-28T22:25:13.269Z,60.70
2023-02-28T22:27:42.354Z,60.47
2023-02-28T22:30:14.056Z,56.08
2023-02-28T22:32:43.061Z,55.15
2023-02-28T22:35:12.065Z,58.58
2023-02-28T22:37:41.208Z,50.92
2023-02-28T22:40:12.342Z,52.65
2023-02-28T22:42:41.381Z,54.40
2023-02-28T22:45:13.528Z,50.80
2023-02-28T22:47:42.583Z,57.42
2023-02-28T22:50:13.504Z,55.95
2023-02-28T22:52:42.949Z,50.78
2023-02-28T22:55:12.597Z,55.20
2023-02-28T22:57:41.645Z,55.92
2023-02-28T23:00:15.542Z,54.03
2023-02-28T23:02:48.418Z,52.53
2023-02-28T23:05:17.710Z,64.57
2023-02-28T23:07:49.526Z,54.80
2023-02-28T23:10:19.516Z,53.90
2023-02-28T23:12:54.555Z,54.53
2023-02-28T23:15:25.216Z,54.60
2023-02-28T23:17:54.635Z,55.28
2023-02-28T23:20:25.650Z,57.30
2023-02-28T23:22:55.515Z,59.08
2023-02-28T23:25:24.618Z,56.78
2023-02-28T23:27:54.188Z,56.10
2023-02-28T23:30:24.697Z,54.35
2023-02-28T23:32:53.937Z,53.47
2023-02-28T23:35:23.134Z,59.65
2023-02-28T23:37:52.231Z,56.35
2023-02-28T23:40:22.381Z,61.42
2023-02-28T23:42:55.083Z,54.03
2023-02-28T23:45:31.947Z,57.80
2023-02-28T23:48:01.244Z,49.75
2023-02-28T23:50:30.250Z,57.78
2023-02-28T23:52:59.251Z,54.55
2023-02-28T23:55:28.315Z,48.00
2023-02-28T23:57:57.330Z,55.92
